sensor_id;sensor_type;location;lat;lon;timestamp;P1;durP1;ratioP1;P2;durP2;ratioP2
10711;SDS011;5407;51.234;6.804;2024-02-26T00:02:07;2.13;;;1.20;;
10711;SDS011;5407;51.234;6.804;2024-02-26T00:04:34;1.30;;;1.20;;
10711;SDS011;5407;51.234;6.804;2024-02-26T00:07:01;2.43;;;1.70;;
10711;SDS011;5407;51.234;6.804;2024-02-26T00:09:28;3.77;;;1.70;;
10711;SDS011;5407;51.234;6.804;2024-02-26T00:11:55;1.90;;;1.40;;
10711;SDS011;5407;51.234;6.804;2024-02-26T00:14:23;2.07;;;1.50;;
10711;SDS011;5407;51.234;6.804;2024-02-26T00:16:49;1.70;;;1.60;;
10711;SDS011;5407;51.234;6.804;2024-02-26T00:19:18;1.73;;;1.60;;
10711;SDS011;5407;51.234;6.804;2024-02-26T00:21:45;2.73;;;1.70;;
10711;SDS011;5407;51.234;6.804;2024-02-26T00:24:11;1.50;;;1.40;;
10711;SDS011;5407;51.234;6.804;2024-02-26T00:26:38;3.97;;;1.60;;
10711;SDS011;5407;51.234;6.804;2024-02-26T00:29:05;1.67;;;1.57;;
10711;SDS011;5407;51.234;6.804;2024-02-26T00:31:32;3.67;;;1.73;;
10711;SDS011;5407;51.234;6.804;2024-02-26T00:33:59;1.93;;;1.70;;
10711;SDS011;5407;51.234;6.804;2024-02-26T00:36:28;1.50;;;1.40;;
10711;SDS011;5407;51.234;6.804;2024-02-26T00:38:54;1.40;;;1.30;;
10711;SDS011;5407;51.234;6.804;2024-02-26T00:41:22;2.57;;;1.43;;
10711;SDS011;5407;51.234;6.804;2024-02-26T00:43:48;2.97;;;1.40;;
10711;SDS011;5407;51.234;6.804;2024-02-26T00:46:15;2.13;;;1.23;;
10711;SDS011;5407;51.234;6.804;2024-02-26T00:48:42;2.23;;;1.43;;
10711;SDS011;5407;51.234;6.804;2024-02-26T00:51:09;1.60;;;1.40;;
10711;SDS011;5407;51.234;6.804;2024-02-26T00:53:37;1.40;;;1.30;;
10711;SDS011;5407;51.234;6.804;2024-02-26T00:56:04;1.43;;;1.20;;
10711;SDS011;5407;51.234;6.804;2024-02-26T00:58:31;1.57;;;1.40;;
10711;SDS011;5407;51.234;6.804;2024-02-26T01:00:58;1.80;;;1.47;;
10711;SDS011;5407;51.234;6.804;2024-02-26T01:03:25;1.30;;;1.20;;
10711;SDS011;5407;51.234;6.804;2024-02-26T01:05:52;1.60;;;1.40;;
10711;SDS011;5407;51.234;6.804;2024-02-26T01:08:19;2.10;;;1.67;;
10711;SDS011;5407;51.234;6.804;2024-02-26T01:10:47;1.53;;;1.33;;
10711;SDS011;5407;51.234;6.804;2024-02-26T01:13:14;1.40;;;1.23;;
10711;SDS011;5407;51.234;6.804;2024-02-26T01:15:41;1.83;;;1.20;;
10711;SDS011;5407;51.234;6.804;2024-02-26T01:18:09;1.30;;;1.20;;
10711;SDS011;5407;51.234;6.804;2024-02-26T01:20:35;1.40;;;1.30;;
10711;SDS011;5407;51.234;6.804;2024-02-26T01:23:03;1.40;;;1.30;;
10711;SDS011;5407;51.234;6.804;2024-02-26T01:25:30;2.60;;;1.20;;
10711;SDS011;5407;51.234;6.804;2024-02-26T01:27:58;2.33;;;1.40;;
10711;SDS011;5407;51.234;6.804;2024-02-26T01:30:25;1.43;;;1.30;;
10711;SDS011;5407;51.234;6.804;2024-02-26T01:32:52;1.50;;;1.40;;
10711;SDS011;5407;51.234;6.804;2024-02-26T01:35:18;1.47;;;1.33;;
10711;SDS011;5407;51.234;6.804;2024-02-26T01:37:45;2.03;;;1.30;;
10711;SDS011;5407;51.234;6.804;2024-02-26T01:40:12;1.73;;;1.40;;
10711;SDS011;5407;51.234;6.804;2024-02-26T01:42:43;1.37;;;1.27;;
10711;SDS011;5407;51.234;6.804;2024-02-26T01:45:12;1.80;;;1.40;;
10711;SDS011;5407;51.234;6.804;2024-02-26T01:47:47;1.47;;;1.27;;
10711;SDS011;5407;51.234;6.804;2024-02-26T01:50:16;1.17;;;1.07;;
10711;SDS011;5407;51.234;6.804;2024-02-26T01:52:43;1.50;;;1.30;;
10711;SDS011;5407;51.234;6.804;2024-02-26T01:55:10;1.30;;;1.20;;
10711;SDS011;5407;51.234;6.804;2024-02-26T01:57:39;2.60;;;1.30;;
10711;SDS011;5407;51.234;6.804;2024-02-26T02:00:07;2.50;;;1.30;;
10711;SDS011;5407;51.234;6.804;2024-02-26T02:02:35;1.50;;;1.40;;
10711;SDS011;5407;51.234;6.804;2024-02-26T02:05:04;1.87;;;1.47;;
10711;SDS011;5407;51.234;6.804;2024-02-26T02:07:31;1.73;;;1.23;;
10711;SDS011;5407;51.234;6.804;2024-02-26T02:09:58;2.27;;;1.37;;
10711;SDS011;5407;51.234;6.804;2024-02-26T02:12:26;1.30;;;1.20;;
10711;SDS011;5407;51.234;6.804;2024-02-26T02:14:53;1.77;;;1.40;;
10711;SDS011;5407;51.234;6.804;2024-02-26T02:17:21;2.10;;;1.17;;
10711;SDS011;5407;51.234;6.804;2024-02-26T02:19:50;1.50;;;1.40;;
10711;SDS011;5407;51.234;6.804;2024-02-26T02:22:18;1.97;;;1.20;;
10711;SDS011;5407;51.234;6.804;2024-02-26T02:24:46;4.90;;;1.27;;
10711;SDS011;5407;51.234;6.804;2024-02-26T02:27:13;2.90;;;1.53;;
10711;SDS011;5407;51.234;6.804;2024-02-26T02:29:40;1.87;;;1.47;;
10711;SDS011;5407;51.234;6.804;2024-02-26T02:32:08;1.60;;;1.27;;
10711;SDS011;5407;51.234;6.804;2024-02-26T02:34:35;1.33;;;1.23;;
10711;SDS011;5407;51.234;6.804;2024-02-26T02:37:03;1.40;;;1.30;;
10711;SDS011;5407;51.234;6.804;2024-02-26T02:39:31;2.00;;;1.40;;
10711;SDS011;5407;51.234;6.804;2024-02-26T02:41:58;2.80;;;1.50;;
10711;SDS011;5407;51.234;6.804;2024-02-26T02:44:24;1.13;;;1.10;;
10711;SDS011;5407;51.234;6.804;2024-02-26T02:46:51;1.80;;;1.37;;
10711;SDS011;5407;51.234;6.804;2024-02-26T02:49:18;2.23;;;1.30;;
10711;SDS011;5407;51.234;6.804;2024-02-26T02:51:45;3.97;;;1.50;;
10711;SDS011;5407;51.234;6.804;2024-02-26T02:54:12;1.87;;;1.50;;
10711;SDS011;5407;51.234;6.804;2024-02-26T02:56:40;1.57;;;1.40;;
10711;SDS011;5407;51.234;6.804;2024-02-26T02:59:07;2.70;;;1.50;;
10711;SDS011;5407;51.234;6.804;2024-02-26T03:01:34;2.07;;;1.40;;
10711;SDS011;5407;51.234;6.804;2024-02-26T03:04:00;1.93;;;1.40;;
10711;SDS011;5407;51.234;6.804;2024-02-26T03:06:28;2.77;;;1.40;;
10711;SDS011;5407;51.234;6.804;2024-02-26T03:08:54;1.47;;;1.30;;
10711;SDS011;5407;51.234;6.804;2024-02-26T03:11:21;2.23;;;1.37;;
10711;SDS011;5407;51.234;6.804;2024-02-26T03:13:50;2.10;;;1.40;;
10711;SDS011;5407;51.234;6.804;2024-02-26T03:16:17;1.40;;;1.30;;
10711;SDS011;5407;51.234;6.804;2024-02-26T03:18:44;1.40;;;1.30;;
10711;SDS011;5407;51.234;6.804;2024-02-26T03:21:10;1.50;;;1.40;;
10711;SDS011;5407;51.234;6.804;2024-02-26T03:23:37;1.87;;;1.47;;
10711;SDS011;5407;51.234;6.804;2024-02-26T03:26:04;1.30;;;1.20;;
10711;SDS011;5407;51.234;6.804;2024-02-26T03:28:31;1.30;;;1.20;;
10711;SDS011;5407;51.234;6.804;2024-02-26T03:31:00;2.07;;;1.40;;
10711;SDS011;5407;51.234;6.804;2024-02-26T03:33:27;1.50;;;1.40;;
10711;SDS011;5407;51.234;6.804;2024-02-26T03:35:54;3.37;;;1.47;;
10711;SDS011;5407;51.234;6.804;2024-02-26T03:38:21;1.67;;;1.37;;
10711;SDS011;5407;51.234;6.804;2024-02-26T03:40:48;1.70;;;1.57;;
10711;SDS011;5407;51.234;6.804;2024-02-26T03:43:16;3.53;;;1.73;;
10711;SDS011;5407;51.234;6.804;2024-02-26T03:45:43;1.60;;;1.23;;
10711;SDS011;5407;51.234;6.804;2024-02-26T03:48:11;2.67;;;1.73;;
10711;SDS011;5407;51.234;6.804;2024-02-26T03:50:38;1.63;;;1.53;;
10711;SDS011;5407;51.234;6.804;2024-02-26T03:53:05;2.90;;;1.73;;
10711;SDS011;5407;51.234;6.804;2024-02-26T03:55:34;2.57;;;1.50;;
10711;SDS011;5407;51.234;6.804;2024-02-26T03:58:01;2.23;;;1.67;;
10711;SDS011;5407;51.234;6.804;2024-02-26T04:00:28;1.73;;;1.47;;
10711;SDS011;5407;51.234;6.804;2024-02-26T04:02:55;1.87;;;1.60;;
10711;SDS011;5407;51.234;6.804;2024-02-26T04:05:23;1.50;;;1.40;;
10711;SDS011;5407;51.234;6.804;2024-02-26T04:07:50;2.93;;;1.70;;
10711;SDS011;5407;51.234;6.804;2024-02-26T04:10:17;3.57;;;1.50;;
10711;SDS011;5407;51.234;6.804;2024-02-26T04:12:44;3.30;;;1.50;;
10711;SDS011;5407;51.234;6.804;2024-02-26T04:15:11;1.40;;;1.30;;
10711;SDS011;5407;51.234;6.804;2024-02-26T04:17:38;1.97;;;1.40;;
10711;SDS011;5407;51.234;6.804;2024-02-26T04:20:05;2.70;;;1.50;;
10711;SDS011;5407;51.234;6.804;2024-02-26T04:22:34;3.10;;;1.67;;
10711;SDS011;5407;51.234;6.804;2024-02-26T04:25:01;1.87;;;1.37;;
10711;SDS011;5407;51.234;6.804;2024-02-26T04:27:28;1.40;;;1.30;;
10711;SDS011;5407;51.234;6.804;2024-02-26T04:29:55;1.97;;;1.43;;
10711;SDS011;5407;51.234;6.804;2024-02-26T04:32:21;1.70;;;1.40;;
10711;SDS011;5407;51.234;6.804;2024-02-26T04:34:48;2.17;;;1.63;;
10711;SDS011;5407;51.234;6.804;2024-02-26T04:37:15;2.30;;;1.53;;
10711;SDS011;5407;51.234;6.804;2024-02-26T04:39:43;2.77;;;1.50;;
10711;SDS011;5407;51.234;6.804;2024-02-26T04:42:10;3.47;;;1.63;;
10711;SDS011;5407;51.234;6.804;2024-02-26T04:44:37;2.17;;;1.87;;
10711;SDS011;5407;51.234;6.804;2024-02-26T04:47:04;2.83;;;1.70;;
10711;SDS011;5407;51.234;6.804;2024-02-26T04:49:32;2.53;;;1.70;;
10711;SDS011;5407;51.234;6.804;2024-02-26T04:52:00;3.10;;;1.90;;
10711;SDS011;5407;51.234;6.804;2024-02-26T04:54:27;3.10;;;1.70;;
10711;SDS011;5407;51.234;6.804;2024-02-26T04:56:55;2.00;;;1.80;;
10711;SDS011;5407;51.234;6.804;2024-02-26T04:59:21;2.27;;;1.80;;
10711;SDS011;5407;51.234;6.804;2024-02-26T05:01:48;2.90;;;1.83;;
10711;SDS011;5407;51.234;6.804;2024-02-26T05:04:16;3.20;;;1.90;;
10711;SDS011;5407;51.234;6.804;2024-02-26T05:06:43;2.40;;;1.90;;
10711;SDS011;5407;51.234;6.804;2024-02-26T05:09:10;2.40;;;1.77;;
10711;SDS011;5407;51.234;6.804;2024-02-26T05:11:37;4.53;;;2.27;;
10711;SDS011;5407;51.234;6.804;2024-02-26T05:14:05;2.40;;;1.70;;
10711;SDS011;5407;51.234;6.804;2024-02-26T05:16:32;2.30;;;2.00;;
10711;SDS011;5407;51.234;6.804;2024-02-26T05:18:59;2.50;;;2.10;;
10711;SDS011;5407;51.234;6.804;2024-02-26T05:21:25;6.30;;;2.03;;
10711;SDS011;5407;51.234;6.804;2024-02-26T05:23:52;3.43;;;2.47;;
10711;SDS011;5407;51.234;6.804;2024-02-26T05:26:19;3.03;;;2.20;;
10711;SDS011;5407;51.234;6.804;2024-02-26T05:28:47;2.50;;;2.20;;
10711;SDS011;5407;51.234;6.804;2024-02-26T05:31:15;2.33;;;2.13;;
10711;SDS011;5407;51.234;6.804;2024-02-26T05:33:43;3.00;;;2.00;;
10711;SDS011;5407;51.234;6.804;2024-02-26T05:36:10;2.50;;;2.10;;
10711;SDS011;5407;51.234;6.804;2024-02-26T05:38:37;2.30;;;2.10;;
10711;SDS011;5407;51.234;6.804;2024-02-26T05:41:04;3.13;;;2.30;;
10711;SDS011;5407;51.234;6.804;2024-02-26T05:43:31;2.73;;;2.10;;
10711;SDS011;5407;51.234;6.804;2024-02-26T05:45:58;2.33;;;2.13;;
10711;SDS011;5407;51.234;6.804;2024-02-26T05:48:26;3.43;;;2.23;;
10711;SDS011;5407;51.234;6.804;2024-02-26T05:50:52;3.70;;;2.30;;
10711;SDS011;5407;51.234;6.804;2024-02-26T05:53:19;3.03;;;2.10;;
10711;SDS011;5407;51.234;6.804;2024-02-26T05:55:46;6.27;;;2.10;;
10711;SDS011;5407;51.234;6.804;2024-02-26T05:58:13;3.47;;;2.10;;
10711;SDS011;5407;51.234;6.804;2024-02-26T06:00:40;3.40;;;2.30;;
10711;SDS011;5407;51.234;6.804;2024-02-26T06:03:06;3.03;;;2.47;;
10711;SDS011;5407;51.234;6.804;2024-02-26T06:05:35;5.10;;;2.17;;
10711;SDS011;5407;51.234;6.804;2024-02-26T06:08:01;2.43;;;2.23;;
10711;SDS011;5407;51.234;6.804;2024-02-26T06:10:29;2.60;;;2.40;;
10711;SDS011;5407;51.234;6.804;2024-02-26T06:12:55;3.17;;;2.60;;
10711;SDS011;5407;51.234;6.804;2024-02-26T06:15:22;3.30;;;2.40;;
10711;SDS011;5407;51.234;6.804;2024-02-26T06:17:49;3.37;;;2.70;;
10711;SDS011;5407;51.234;6.804;2024-02-26T06:20:16;2.93;;;2.40;;
10711;SDS011;5407;51.234;6.804;2024-02-26T06:22:44;2.67;;;2.30;;
10711;SDS011;5407;51.234;6.804;2024-02-26T06:25:11;2.97;;;2.47;;
10711;SDS011;5407;51.234;6.804;2024-02-26T06:27:38;2.97;;;2.57;;
10711;SDS011;5407;51.234;6.804;2024-02-26T06:30:05;2.57;;;2.37;;
10711;SDS011;5407;51.234;6.804;2024-02-26T06:32:33;2.63;;;2.37;;
10711;SDS011;5407;51.234;6.804;2024-02-26T06:35:00;3.00;;;2.40;;
10711;SDS011;5407;51.234;6.804;2024-02-26T06:37:31;2.87;;;2.20;;
10711;SDS011;5407;51.234;6.804;2024-02-26T06:40:00;2.53;;;2.33;;
10711;SDS011;5407;51.234;6.804;2024-02-26T06:42:29;3.40;;;2.27;;
10711;SDS011;5407;51.234;6.804;2024-02-26T06:44:55;2.83;;;2.40;;
10711;SDS011;5407;51.234;6.804;2024-02-26T06:47:23;4.13;;;2.40;;
10711;SDS011;5407;51.234;6.804;2024-02-26T06:49:51;2.63;;;2.30;;
10711;SDS011;5407;51.234;6.804;2024-02-26T06:52:18;4.73;;;2.70;;
10711;SDS011;5407;51.234;6.804;2024-02-26T06:54:44;3.37;;;2.37;;
10711;SDS011;5407;51.234;6.804;2024-02-26T06:57:14;3.33;;;2.70;;
10711;SDS011;5407;51.234;6.804;2024-02-26T06:59:41;3.40;;;2.47;;
10711;SDS011;5407;51.234;6.804;2024-02-26T07:02:11;4.63;;;2.50;;
10711;SDS011;5407;51.234;6.804;2024-02-26T07:04:38;4.43;;;2.63;;
10711;SDS011;5407;51.234;6.804;2024-02-26T07:07:05;4.27;;;2.70;;
10711;SDS011;5407;51.234;6.804;2024-02-26T07:09:33;4.67;;;2.87;;
10711;SDS011;5407;51.234;6.804;2024-02-26T07:12:00;5.43;;;2.57;;
10711;SDS011;5407;51.234;6.804;2024-02-26T07:14:29;2.60;;;2.40;;
10711;SDS011;5407;51.234;6.804;2024-02-26T07:16:55;3.17;;;2.83;;
10711;SDS011;5407;51.234;6.804;2024-02-26T07:19:23;3.20;;;2.80;;
10711;SDS011;5407;51.234;6.804;2024-02-26T07:21:50;3.27;;;2.97;;
10711;SDS011;5407;51.234;6.804;2024-02-26T07:24:17;7.07;;;2.80;;
10711;SDS011;5407;51.234;6.804;2024-02-26T07:26:43;4.83;;;2.60;;
10711;SDS011;5407;51.234;6.804;2024-02-26T07:29:10;3.30;;;2.70;;
10711;SDS011;5407;51.234;6.804;2024-02-26T07:31:39;3.23;;;2.93;;
10711;SDS011;5407;51.234;6.804;2024-02-26T07:34:05;3.07;;;2.77;;
10711;SDS011;5407;51.234;6.804;2024-02-26T07:36:33;3.53;;;3.00;;
10711;SDS011;5407;51.234;6.804;2024-02-26T07:39:00;4.83;;;3.07;;
10711;SDS011;5407;51.234;6.804;2024-02-26T07:41:27;5.63;;;2.80;;
10711;SDS011;5407;51.234;6.804;2024-02-26T07:43:54;3.07;;;2.77;;
10711;SDS011;5407;51.234;6.804;2024-02-26T07:46:20;3.20;;;2.90;;
10711;SDS011;5407;51.234;6.804;2024-02-26T07:48:49;3.43;;;2.70;;
10711;SDS011;5407;51.234;6.804;2024-02-26T07:51:15;2.60;;;2.40;;
10711;SDS011;5407;51.234;6.804;2024-02-26T07:53:42;4.07;;;2.60;;
10711;SDS011;5407;51.234;6.804;2024-02-26T07:56:09;6.77;;;2.90;;
10711;SDS011;5407;51.234;6.804;2024-02-26T07:58:36;4.17;;;2.60;;
10711;SDS011;5407;51.234;6.804;2024-02-26T08:01:03;3.27;;;2.60;;
10711;SDS011;5407;51.234;6.804;2024-02-26T08:03:30;3.10;;;2.47;;
10711;SDS011;5407;51.234;6.804;2024-02-26T08:05:58;3.83;;;3.27;;
10711;SDS011;5407;51.234;6.804;2024-02-26T08:08:25;4.33;;;2.70;;
10711;SDS011;5407;51.234;6.804;2024-02-26T08:10:52;3.20;;;2.73;;
10711;SDS011;5407;51.234;6.804;2024-02-26T08:13:19;3.63;;;2.47;;
10711;SDS011;5407;51.234;6.804;2024-02-26T08:15:45;2.90;;;2.33;;
10711;SDS011;5407;51.234;6.804;2024-02-26T08:18:12;2.50;;;2.30;;
10711;SDS011;5407;51.234;6.804;2024-02-26T08:20:39;3.10;;;2.20;;
10711;SDS011;5407;51.234;6.804;2024-02-26T08:23:07;3.03;;;2.40;;
10711;SDS011;5407;51.234;6.804;2024-02-26T08:25:34;2.83;;;2.33;;
10711;SDS011;5407;51.234;6.804;2024-02-26T08:28:01;4.03;;;2.47;;
10711;SDS011;5407;51.234;6.804;2024-02-26T08:30:28;3.53;;;2.20;;
10711;SDS011;5407;51.234;6.804;2024-02-26T08:32:54;4.33;;;2.30;;
10711;SDS011;5407;51.234;6.804;2024-02-26T08:35:21;3.77;;;2.50;;
10711;SDS011;5407;51.234;6.804;2024-02-26T08:37:48;2.40;;;2.20;;
10711;SDS011;5407;51.234;6.804;2024-02-26T08:40:17;3.10;;;2.37;;
10711;SDS011;5407;51.234;6.804;2024-02-26T08:42:45;3.57;;;2.73;;
10711;SDS011;5407;51.234;6.804;2024-02-26T08:45:12;3.40;;;2.30;;
10711;SDS011;5407;51.234;6.804;2024-02-26T08:47:39;5.10;;;2.30;;
10711;SDS011;5407;51.234;6.804;2024-02-26T08:50:06;3.10;;;2.53;;
10711;SDS011;5407;51.234;6.804;2024-02-26T08:52:34;3.03;;;2.27;;
10711;SDS011;5407;51.234;6.804;2024-02-26T08:55:00;3.13;;;2.80;;
10711;SDS011;5407;51.234;6.804;2024-02-26T08:57:29;3.33;;;2.50;;
10711;SDS011;5407;51.234;6.804;2024-02-26T08:59:57;2.90;;;1.97;;
10711;SDS011;5407;51.234;6.804;2024-02-26T09:02:25;3.23;;;2.50;;
10711;SDS011;5407;51.234;6.804;2024-02-26T09:04:52;4.43;;;2.03;;
10711;SDS011;5407;51.234;6.804;2024-02-26T09:07:20;2.50;;;2.20;;
10711;SDS011;5407;51.234;6.804;2024-02-26T09:09:47;4.63;;;2.30;;
10711;SDS011;5407;51.234;6.804;2024-02-26T09:12:14;2.63;;;2.07;;
10711;SDS011;5407;51.234;6.804;2024-02-26T09:14:42;3.20;;;2.17;;
10711;SDS011;5407;51.234;6.804;2024-02-26T09:17:09;4.03;;;2.30;;
10711;SDS011;5407;51.234;6.804;2024-02-26T09:19:36;2.27;;;2.07;;
10711;SDS011;5407;51.234;6.804;2024-02-26T09:22:03;2.47;;;2.17;;
10711;SDS011;5407;51.234;6.804;2024-02-26T09:24:30;4.43;;;2.40;;
10711;SDS011;5407;51.234;6.804;2024-02-26T09:26:56;3.00;;;2.33;;
10711;SDS011;5407;51.234;6.804;2024-02-26T09:29:23;3.87;;;2.43;;
10711;SDS011;5407;51.234;6.804;2024-02-26T09:31:53;2.97;;;2.30;;
10711;SDS011;5407;51.234;6.804;2024-02-26T09:34:19;2.63;;;2.20;;
10711;SDS011;5407;51.234;6.804;2024-02-26T09:36:46;2.77;;;2.50;;
10711;SDS011;5407;51.234;6.804;2024-02-26T09:39:13;3.17;;;2.47;;
10711;SDS011;5407;51.234;6.804;2024-02-26T09:41:45;3.33;;;2.50;;
10711;SDS011;5407;51.234;6.804;2024-02-26T09:44:12;3.13;;;2.40;;
10711;SDS011;5407;51.234;6.804;2024-02-26T09:46:44;2.90;;;2.20;;
10711;SDS011;5407;51.234;6.804;2024-02-26T09:49:13;3.20;;;2.30;;
10711;SDS011;5407;51.234;6.804;2024-02-26T09:51:42;4.13;;;2.50;;
10711;SDS011;5407;51.234;6.804;2024-02-26T09:54:09;3.87;;;2.40;;
10711;SDS011;5407;51.234;6.804;2024-02-26T09:56:37;5.30;;;2.40;;
10711;SDS011;5407;51.234;6.804;2024-02-26T09:59:06;3.57;;;2.40;;
10711;SDS011;5407;51.234;6.804;2024-02-26T10:01:39;4.40;;;2.67;;
10711;SDS011;5407;51.234;6.804;2024-02-26T10:04:08;3.23;;;2.50;;
10711;SDS011;5407;51.234;6.804;2024-02-26T10:06:37;2.80;;;2.50;;
10711;SDS011;5407;51.234;6.804;2024-02-26T10:09:04;5.07;;;3.00;;
10711;SDS011;5407;51.234;6.804;2024-02-26T10:11:35;3.43;;;2.80;;
10711;SDS011;5407;51.234;6.804;2024-02-26T10:14:04;5.13;;;2.83;;
10711;SDS011;5407;51.234;6.804;2024-02-26T10:16:31;3.53;;;2.93;;
10711;SDS011;5407;51.234;6.804;2024-02-26T10:18:59;5.20;;;2.83;;
10711;SDS011;5407;51.234;6.804;2024-02-26T10:21:26;4.23;;;3.00;;
10711;SDS011;5407;51.234;6.804;2024-02-26T10:23:54;4.67;;;2.60;;
10711;SDS011;5407;51.234;6.804;2024-02-26T10:26:21;5.33;;;2.73;;
10711;SDS011;5407;51.234;6.804;2024-02-26T10:28:48;4.03;;;2.70;;
10711;SDS011;5407;51.234;6.804;2024-02-26T10:31:15;4.77;;;3.00;;
10711;SDS011;5407;51.234;6.804;2024-02-26T10:33:43;3.70;;;3.10;;
10711;SDS011;5407;51.234;6.804;2024-02-26T10:36:10;5.80;;;3.00;;
10711;SDS011;5407;51.234;6.804;2024-02-26T10:38:37;4.97;;;3.07;;
10711;SDS011;5407;51.234;6.804;2024-02-26T10:41:06;4.13;;;3.00;;
10711;SDS011;5407;51.234;6.804;2024-02-26T10:43:33;5.73;;;3.27;;
10711;SDS011;5407;51.234;6.804;2024-02-26T10:46:00;5.20;;;3.07;;
10711;SDS011;5407;51.234;6.804;2024-02-26T10:48:27;3.57;;;3.23;;
10711;SDS011;5407;51.234;6.804;2024-02-26T10:50:54;3.93;;;3.53;;
10711;SDS011;5407;51.234;6.804;2024-02-26T10:53:22;4.63;;;3.27;;
10711;SDS011;5407;51.234;6.804;2024-02-26T10:55:52;3.67;;;3.10;;
10711;SDS011;5407;51.234;6.804;2024-02-26T10:58:24;5.57;;;3.20;;
10711;SDS011;5407;51.234;6.804;2024-02-26T11:00:52;4.87;;;3.43;;
10711;SDS011;5407;51.234;6.804;2024-02-26T11:03:19;3.77;;;3.10;;
10711;SDS011;5407;51.234;6.804;2024-02-26T11:05:48;3.53;;;3.13;;
10711;SDS011;5407;51.234;6.804;2024-02-26T11:08:15;3.43;;;3.13;;
10711;SDS011;5407;51.234;6.804;2024-02-26T11:10:44;5.40;;;3.73;;
10711;SDS011;5407;51.234;6.804;2024-02-26T11:13:14;5.63;;;3.60;;
10711;SDS011;5407;51.234;6.804;2024-02-26T11:15:44;5.37;;;3.80;;
10711;SDS011;5407;51.234;6.804;2024-02-26T11:18:14;3.40;;;3.10;;
10711;SDS011;5407;51.234;6.804;2024-02-26T11:20:42;4.30;;;3.10;;
10711;SDS011;5407;51.234;6.804;2024-02-26T11:23:10;5.00;;;4.50;;
10711;SDS011;5407;51.234;6.804;2024-02-26T11:25:36;5.00;;;3.57;;
10711;SDS011;5407;51.234;6.804;2024-02-26T11:28:06;4.53;;;3.77;;
10711;SDS011;5407;51.234;6.804;2024-02-26T11:30:36;4.43;;;3.13;;
10711;SDS011;5407;51.234;6.804;2024-02-26T11:33:08;3.67;;;3.20;;
10711;SDS011;5407;51.234;6.804;2024-02-26T11:35:37;3.80;;;3.40;;
10711;SDS011;5407;51.234;6.804;2024-02-26T11:38:05;5.10;;;3.10;;
10711;SDS011;5407;51.234;6.804;2024-02-26T11:40:33;5.33;;;3.80;;
10711;SDS011;5407;51.234;6.804;2024-02-26T11:43:04;5.50;;;4.37;;
10711;SDS011;5407;51.234;6.804;2024-02-26T11:48:23;12.40;;;9.73;;
10711;SDS011;5407;51.234;6.804;2024-02-26T11:50:52;7.97;;;6.00;;
10711;SDS011;5407;51.234;6.804;2024-02-26T11:53:23;8.30;;;6.20;;
10711;SDS011;5407;51.234;6.804;2024-02-26T11:58:39;9.27;;;6.73;;
10711;SDS011;5407;51.234;6.804;2024-02-26T12:04:15;4.43;;;3.93;;
10711;SDS011;5407;51.234;6.804;2024-02-26T12:06:44;6.47;;;4.10;;
10711;SDS011;5407;51.234;6.804;2024-02-26T12:09:12;4.80;;;4.23;;
10711;SDS011;5407;51.234;6.804;2024-02-26T12:11:40;4.70;;;4.20;;
10711;SDS011;5407;51.234;6.804;2024-02-26T12:14:09;6.47;;;4.70;;
10711;SDS011;5407;51.234;6.804;2024-02-26T12:16:36;5.13;;;4.30;;
10711;SDS011;5407;51.234;6.804;2024-02-26T12:19:04;6.17;;;4.90;;
10711;SDS011;5407;51.234;6.804;2024-02-26T12:21:34;5.20;;;4.60;;
10711;SDS011;5407;51.234;6.804;2024-02-26T12:24:11;7.27;;;5.43;;
10711;SDS011;5407;51.234;6.804;2024-02-26T12:26:41;6.40;;;5.70;;
10711;SDS011;5407;51.234;6.804;2024-02-26T12:29:08;6.67;;;5.90;;
10711;SDS011;5407;51.234;6.804;2024-02-26T12:31:36;8.20;;;5.40;;
10711;SDS011;5407;51.234;6.804;2024-02-26T12:34:04;9.90;;;6.10;;
10711;SDS011;5407;51.234;6.804;2024-02-26T12:36:31;6.53;;;5.93;;
10711;SDS011;5407;51.234;6.804;2024-02-26T12:39:02;6.97;;;6.27;;
10711;SDS011;5407;51.234;6.804;2024-02-26T12:41:31;8.23;;;6.73;;
10711;SDS011;5407;51.234;6.804;2024-02-26T12:43:58;8.47;;;6.43;;
10711;SDS011;5407;51.234;6.804;2024-02-26T12:46:25;16.07;;;10.20;;
10711;SDS011;5407;51.234;6.804;2024-02-26T12:48:54;10.43;;;8.03;;
10711;SDS011;5407;51.234;6.804;2024-02-26T12:51:23;10.90;;;8.67;;
10711;SDS011;5407;51.234;6.804;2024-02-26T12:53:51;13.93;;;10.33;;
10711;SDS011;5407;51.234;6.804;2024-02-26T12:56:20;8.80;;;7.90;;
10711;SDS011;5407;51.234;6.804;2024-02-26T12:58:48;9.83;;;7.73;;
10711;SDS011;5407;51.234;6.804;2024-02-26T13:01:17;8.93;;;7.73;;
10711;SDS011;5407;51.234;6.804;2024-02-26T13:03:45;14.53;;;9.97;;
10711;SDS011;5407;51.234;6.804;2024-02-26T13:06:12;10.80;;;7.87;;
10711;SDS011;5407;51.234;6.804;2024-02-26T13:08:40;9.77;;;7.37;;
10711;SDS011;5407;51.234;6.804;2024-02-26T13:11:06;9.77;;;7.60;;
10711;SDS011;5407;51.234;6.804;2024-02-26T13:13:36;8.53;;;7.37;;
10711;SDS011;5407;51.234;6.804;2024-02-26T13:16:03;8.83;;;7.93;;
10711;SDS011;5407;51.234;6.804;2024-02-26T13:18:32;11.10;;;8.10;;
10711;SDS011;5407;51.234;6.804;2024-02-26T13:21:08;9.83;;;7.77;;
10711;SDS011;5407;51.234;6.804;2024-02-26T13:23:36;10.17;;;7.43;;
10711;SDS011;5407;51.234;6.804;2024-02-26T13:26:03;10.23;;;7.40;;
10711;SDS011;5407;51.234;6.804;2024-02-26T13:28:30;7.70;;;7.00;;
10711;SDS011;5407;51.234;6.804;2024-02-26T13:30:59;10.90;;;7.43;;
10711;SDS011;5407;51.234;6.804;2024-02-26T13:33:29;13.83;;;11.67;;
10711;SDS011;5407;51.234;6.804;2024-02-26T13:35:56;25.00;;;22.23;;
10711;SDS011;5407;51.234;6.804;2024-02-26T13:38:24;14.80;;;12.97;;
10711;SDS011;5407;51.234;6.804;2024-02-26T13:40:51;13.63;;;10.50;;
10711;SDS011;5407;51.234;6.804;2024-02-26T13:43:18;9.70;;;7.80;;
10711;SDS011;5407;51.234;6.804;2024-02-26T13:45:45;11.97;;;9.87;;
10711;SDS011;5407;51.234;6.804;2024-02-26T13:48:14;8.90;;;7.60;;
10711;SDS011;5407;51.234;6.804;2024-02-26T13:50:41;8.93;;;7.90;;
10711;SDS011;5407;51.234;6.804;2024-02-26T13:53:10;10.23;;;8.87;;
10711;SDS011;5407;51.234;6.804;2024-02-26T13:55:37;8.47;;;7.50;;
10711;SDS011;5407;51.234;6.804;2024-02-26T13:58:07;10.57;;;8.67;;
10711;SDS011;5407;51.234;6.804;2024-02-26T14:00:35;11.77;;;8.47;;
10711;SDS011;5407;51.234;6.804;2024-02-26T14:03:02;13.77;;;10.50;;
10711;SDS011;5407;51.234;6.804;2024-02-26T14:05:30;12.43;;;8.83;;
10711;SDS011;5407;51.234;6.804;2024-02-26T14:07:57;10.17;;;8.10;;
10711;SDS011;5407;51.234;6.804;2024-02-26T14:10:24;9.53;;;7.53;;
10711;SDS011;5407;51.234;6.804;2024-02-26T14:12:51;10.57;;;7.83;;
10711;SDS011;5407;51.234;6.804;2024-02-26T14:15:18;9.07;;;7.87;;
10711;SDS011;5407;51.234;6.804;2024-02-26T14:17:45;11.57;;;7.37;;
10711;SDS011;5407;51.234;6.804;2024-02-26T14:20:18;8.93;;;6.77;;
10711;SDS011;5407;51.234;6.804;2024-02-26T14:22:47;8.30;;;6.70;;
10711;SDS011;5407;51.234;6.804;2024-02-26T14:25:14;11.07;;;7.10;;
10711;SDS011;5407;51.234;6.804;2024-02-26T14:27:41;9.63;;;6.73;;
10711;SDS011;5407;51.234;6.804;2024-02-26T14:30:08;9.03;;;8.10;;
10711;SDS011;5407;51.234;6.804;2024-02-26T14:32:35;8.63;;;7.67;;
10711;SDS011;5407;51.234;6.804;2024-02-26T14:35:03;18.93;;;15.47;;
10711;SDS011;5407;51.234;6.804;2024-02-26T14:37:33;9.93;;;6.90;;
10711;SDS011;5407;51.234;6.804;2024-02-26T14:40:01;8.20;;;7.00;;
10711;SDS011;5407;51.234;6.804;2024-02-26T14:42:28;7.47;;;6.63;;
10711;SDS011;5407;51.234;6.804;2024-02-26T14:44:56;7.30;;;6.40;;
10711;SDS011;5407;51.234;6.804;2024-02-26T14:47:23;7.40;;;5.83;;
10711;SDS011;5407;51.234;6.804;2024-02-26T14:49:49;8.00;;;6.80;;
10711;SDS011;5407;51.234;6.804;2024-02-26T14:52:17;7.37;;;5.77;;
10711;SDS011;5407;51.234;6.804;2024-02-26T14:54:44;8.43;;;6.77;;
10711;SDS011;5407;51.234;6.804;2024-02-26T14:57:12;8.60;;;6.23;;
10711;SDS011;5407;51.234;6.804;2024-02-26T14:59:39;9.47;;;5.40;;
10711;SDS011;5407;51.234;6.804;2024-02-26T15:02:06;7.30;;;5.90;;
10711;SDS011;5407;51.234;6.804;2024-02-26T15:04:35;7.93;;;5.70;;
10711;SDS011;5407;51.234;6.804;2024-02-26T15:07:02;6.17;;;5.57;;
10711;SDS011;5407;51.234;6.804;2024-02-26T15:09:29;7.90;;;5.63;;
10711;SDS011;5407;51.234;6.804;2024-02-26T15:11:55;8.80;;;5.47;;